N440WF KMEZ-KAXX
Flight info
| Callsign | N440WF |
|---|---|
| Flight time | 3h 9m |
| Altitude | 12000 |
| Route | PGO CARFF V440 BFV V140 |
| Aircraft | AEST/L-G/S |
Departure
| Time | 2026-05-03 21:49 |
|---|---|
| Airport | Mena Intermountain Municipal Airport (KMEZ) |
Arrival
| Time | 2026-05-04 00:58 |
|---|---|
| Airport | Angel Fire Airport (KAXX) |
| Time | Latitude | Longitude | Altitude | Speed | Heading |
|---|---|---|---|---|---|
| 2026-05-03 21:43 | 34.55369 | -94.20743 | 1067 ft | 0 kts | 117° |
| 2026-05-03 21:46 | 34.55351 | -94.20718 | 1067 ft | 9 kts | 162° |
| 2026-05-03 21:47 | 34.55309 | -94.20796 | 1068 ft | 8 kts | 307° |
| 2026-05-03 21:47 | 34.55394 | -94.20813 | 1066 ft | 15 kts | 353° |
| 2026-05-03 21:47 | 34.55500 | -94.20826 | 1064 ft | 9 kts | 353° |
| 2026-05-03 21:47 | 34.55544 | -94.20860 | 1063 ft | 9 kts | 260° |
| 2026-05-03 21:48 | 34.55447 | -94.20888 | 1065 ft | 43 kts | 174° |
| 2026-05-03 21:48 | 34.54910 | -94.20812 | 1078 ft | 105 kts | 172° |
| 2026-05-03 21:48 | 34.54103 | -94.20715 | 1124 ft | 126 kts | 174° |
| 2026-05-03 21:48 | 34.53610 | -94.20268 | 1617 ft | 108 kts | 75° |
| 2026-05-03 21:49 | 34.54314 | -94.19819 | 1512 ft | 149 kts | 343° |
| 2026-05-03 21:49 | 34.54905 | -94.20871 | 1529 ft | 172 kts | 276° |
| 2026-05-03 21:49 | 34.54985 | -94.22238 | 2092 ft | 164 kts | 273° |
| 2026-05-03 21:49 | 34.54973 | -94.23674 | 2319 ft | 175 kts | 276° |
| 2026-05-03 21:50 | 34.55389 | -94.25072 | 2600 ft | 177 kts | 297° |
| 2026-05-03 21:50 | 34.55895 | -94.26409 | 2978 ft | 172 kts | 294° |
| 2026-05-03 21:50 | 34.56338 | -94.27728 | 3356 ft | 165 kts | 295° |
| 2026-05-03 21:50 | 34.56780 | -94.28990 | 3666 ft | 161 kts | 295° |
| 2026-05-03 21:51 | 34.57234 | -94.30227 | 3997 ft | 161 kts | 294° |
| 2026-05-03 21:51 | 34.57680 | -94.31476 | 4312 ft | 162 kts | 293° |
| 2026-05-03 21:51 | 34.58130 | -94.32744 | 4611 ft | 164 kts | 292° |
| 2026-05-03 21:51 | 34.58429 | -94.33588 | 4820 ft | 164 kts | 291° |
| 2026-05-03 21:52 | 34.58875 | -94.34854 | 5100 ft | 163 kts | 291° |
| 2026-05-03 21:52 | 34.59470 | -94.36522 | 5498 ft | 164 kts | 290° |
| 2026-05-03 21:52 | 34.59917 | -94.37799 | 5811 ft | 164 kts | 290° |
| 2026-05-03 21:52 | 34.60360 | -94.39074 | 6118 ft | 164 kts | 290° |
| 2026-05-03 21:53 | 34.60660 | -94.39935 | 6327 ft | 164 kts | 290° |
| 2026-05-03 21:53 | 34.61252 | -94.41624 | 6719 ft | 164 kts | 290° |
| 2026-05-03 21:53 | 34.61555 | -94.42486 | 6909 ft | 164 kts | 290° |
| 2026-05-03 21:53 | 34.62005 | -94.43757 | 7187 ft | 164 kts | 290° |
| 2026-05-03 21:54 | 34.62457 | -94.45026 | 7460 ft | 164 kts | 290° |
| 2026-05-03 21:54 | 34.62905 | -94.46294 | 7729 ft | 163 kts | 290° |
| 2026-05-03 21:54 | 34.63350 | -94.47558 | 7994 ft | 163 kts | 290° |
| 2026-05-03 21:54 | 34.63792 | -94.48817 | 8259 ft | 162 kts | 290° |
| 2026-05-03 21:55 | 34.64232 | -94.50067 | 8527 ft | 161 kts | 290° |
| 2026-05-03 21:55 | 34.64667 | -94.51294 | 8781 ft | 160 kts | 290° |
| 2026-05-03 21:55 | 34.65105 | -94.52534 | 9034 ft | 160 kts | 290° |
| 2026-05-03 21:55 | 34.65540 | -94.53773 | 9282 ft | 159 kts | 290° |
| 2026-05-03 21:56 | 34.65972 | -94.55007 | 9523 ft | 158 kts | 291° |
| 2026-05-03 21:56 | 34.66403 | -94.56234 | 9763 ft | 158 kts | 291° |
| 2026-05-03 21:56 | 34.66835 | -94.57459 | 10000 ft | 158 kts | 291° |
| 2026-05-03 21:56 | 34.67267 | -94.58688 | 10242 ft | 158 kts | 291° |
| 2026-05-03 21:57 | 34.67697 | -94.59916 | 10479 ft | 157 kts | 291° |
| 2026-05-03 21:57 | 34.68051 | -94.61172 | 10709 ft | 157 kts | 283° |
| 2026-05-03 21:57 | 34.68249 | -94.62475 | 10943 ft | 157 kts | 279° |
| 2026-05-03 21:57 | 34.68413 | -94.63784 | 11173 ft | 157 kts | 279° |
| 2026-05-03 21:58 | 34.68572 | -94.65098 | 11402 ft | 156 kts | 279° |
| 2026-05-03 21:58 | 34.68724 | -94.66403 | 11607 ft | 156 kts | 280° |
| 2026-05-03 21:58 | 34.68881 | -94.67687 | 11817 ft | 155 kts | 280° |
| 2026-05-03 21:58 | 34.69040 | -94.68982 | 12028 ft | 155 kts | 280° |
| 2026-05-03 21:59 | 34.69203 | -94.70287 | 12188 ft | 158 kts | 280° |
| 2026-05-03 21:59 | 34.69370 | -94.71622 | 12332 ft | 161 kts | 280° |
| 2026-05-03 21:59 | 34.69537 | -94.72970 | 12480 ft | 163 kts | 280° |
| 2026-05-03 21:59 | 34.69712 | -94.74366 | 12499 ft | 171 kts | 280° |
| 2026-05-03 22:00 | 34.69893 | -94.75831 | 12491 ft | 177 kts | 281° |
| 2026-05-03 22:00 | 34.70079 | -94.77329 | 12480 ft | 181 kts | 280° |
| 2026-05-03 22:00 | 34.70268 | -94.78862 | 12480 ft | 186 kts | 280° |
| 2026-05-03 22:00 | 34.70462 | -94.80434 | 12485 ft | 189 kts | 280° |
| 2026-05-03 22:01 | 34.70660 | -94.82029 | 12487 ft | 192 kts | 280° |
| 2026-05-03 22:01 | 34.70861 | -94.83640 | 12481 ft | 194 kts | 280° |
| 2026-05-03 22:01 | 34.71063 | -94.85270 | 12478 ft | 196 kts | 280° |
| 2026-05-03 22:01 | 34.71266 | -94.86913 | 12481 ft | 197 kts | 280° |
| 2026-05-03 22:02 | 34.71467 | -94.88562 | 12482 ft | 198 kts | 280° |
| 2026-05-03 22:02 | 34.71665 | -94.90200 | 12481 ft | 198 kts | 280° |
| 2026-05-03 22:02 | 34.71866 | -94.91861 | 12485 ft | 199 kts | 280° |
| 2026-05-03 22:02 | 34.72069 | -94.93527 | 12473 ft | 200 kts | 280° |
| 2026-05-03 22:03 | 34.72270 | -94.95198 | 12480 ft | 200 kts | 280° |
| 2026-05-03 22:03 | 34.72472 | -94.96868 | 12483 ft | 200 kts | 280° |
| 2026-05-03 22:03 | 34.72673 | -94.98542 | 12481 ft | 200 kts | 280° |
| 2026-05-03 22:03 | 34.72875 | -95.00215 | 12479 ft | 200 kts | 280° |
| 2026-05-03 22:04 | 34.73076 | -95.01888 | 12479 ft | 200 kts | 280° |
| 2026-05-03 22:04 | 34.73277 | -95.03560 | 12479 ft | 200 kts | 280° |
| 2026-05-03 22:04 | 34.73477 | -95.05232 | 12483 ft | 200 kts | 280° |
| 2026-05-03 22:04 | 34.73677 | -95.06904 | 12484 ft | 200 kts | 279° |
| 2026-05-03 22:05 | 34.73877 | -95.08584 | 12480 ft | 200 kts | 279° |
| 2026-05-03 22:05 | 34.74076 | -95.10262 | 12479 ft | 201 kts | 279° |
| 2026-05-03 22:05 | 34.74275 | -95.11941 | 12479 ft | 201 kts | 279° |
| 2026-05-03 22:05 | 34.74467 | -95.13616 | 12486 ft | 200 kts | 279° |
| 2026-05-03 22:06 | 34.74659 | -95.15287 | 12489 ft | 199 kts | 279° |
| 2026-05-03 22:06 | 34.74857 | -95.16957 | 12490 ft | 200 kts | 279° |
| 2026-05-03 22:06 | 34.75055 | -95.18629 | 12490 ft | 200 kts | 279° |
| 2026-05-03 22:06 | 34.75252 | -95.20302 | 12495 ft | 200 kts | 279° |
| 2026-05-03 22:07 | 34.75450 | -95.21979 | 12491 ft | 201 kts | 279° |
| 2026-05-03 22:07 | 34.75649 | -95.23659 | 12486 ft | 201 kts | 279° |
| 2026-05-03 22:07 | 34.75846 | -95.25337 | 12479 ft | 200 kts | 279° |
| 2026-05-03 22:07 | 34.76043 | -95.27014 | 12485 ft | 201 kts | 279° |
| 2026-05-03 22:08 | 34.76241 | -95.28690 | 12478 ft | 201 kts | 279° |
| 2026-05-03 22:08 | 34.76440 | -95.30373 | 12480 ft | 200 kts | 279° |
| 2026-05-03 22:08 | 34.76636 | -95.32046 | 12481 ft | 200 kts | 279° |
| 2026-05-03 22:08 | 34.76833 | -95.33724 | 12480 ft | 201 kts | 279° |
| 2026-05-03 22:09 | 34.77029 | -95.35404 | 12482 ft | 201 kts | 279° |
| 2026-05-03 22:09 | 34.77226 | -95.37085 | 12479 ft | 201 kts | 279° |
| 2026-05-03 22:09 | 34.77423 | -95.38769 | 12480 ft | 201 kts | 279° |
| 2026-05-03 22:10 | 34.77815 | -95.42127 | 12480 ft | 201 kts | 279° |
| 2026-05-03 22:10 | 34.78010 | -95.43807 | 12479 ft | 201 kts | 279° |
| 2026-05-03 22:10 | 34.78203 | -95.45469 | 12482 ft | 201 kts | 279° |
| 2026-05-03 22:10 | 34.78399 | -95.47150 | 12484 ft | 201 kts | 279° |
| 2026-05-03 22:11 | 34.78593 | -95.48829 | 12482 ft | 201 kts | 279° |
| 2026-05-03 22:11 | 34.78786 | -95.50516 | 12480 ft | 201 kts | 279° |
| 2026-05-03 22:11 | 34.78980 | -95.52196 | 12478 ft | 200 kts | 279° |
| 2026-05-03 22:11 | 34.79177 | -95.53872 | 12482 ft | 200 kts | 279° |
| 2026-05-03 22:12 | 34.79373 | -95.55552 | 12481 ft | 200 kts | 279° |
| 2026-05-03 22:12 | 34.79567 | -95.57231 | 12481 ft | 200 kts | 279° |
| 2026-05-03 22:12 | 34.79761 | -95.58914 | 12481 ft | 201 kts | 279° |
| 2026-05-03 22:12 | 34.79954 | -95.60596 | 12481 ft | 201 kts | 279° |
| 2026-05-03 22:13 | 34.80146 | -95.62276 | 12479 ft | 200 kts | 279° |
| 2026-05-03 22:13 | 34.80337 | -95.63938 | 12481 ft | 201 kts | 279° |
| 2026-05-03 22:13 | 34.80532 | -95.65621 | 12483 ft | 201 kts | 279° |
| 2026-05-03 22:13 | 34.80725 | -95.67313 | 12478 ft | 201 kts | 279° |
| 2026-05-03 22:14 | 34.80918 | -95.69002 | 12480 ft | 201 kts | 279° |
| 2026-05-03 22:14 | 34.81110 | -95.70690 | 12479 ft | 201 kts | 279° |
| 2026-05-03 22:14 | 34.81302 | -95.72378 | 12481 ft | 201 kts | 279° |
| 2026-05-03 22:14 | 34.81494 | -95.74066 | 12482 ft | 201 kts | 279° |
| 2026-05-03 22:15 | 34.81687 | -95.75759 | 12482 ft | 202 kts | 278° |
| 2026-05-03 22:15 | 34.81877 | -95.77431 | 12480 ft | 202 kts | 278° |
| 2026-05-03 22:15 | 34.82067 | -95.79121 | 12480 ft | 202 kts | 279° |
| 2026-05-03 22:15 | 34.82258 | -95.80810 | 12481 ft | 201 kts | 279° |
| 2026-05-03 22:16 | 34.82450 | -95.82503 | 12482 ft | 202 kts | 278° |
| 2026-05-03 22:16 | 34.82640 | -95.84190 | 12479 ft | 202 kts | 278° |
| 2026-05-03 22:16 | 34.82831 | -95.85885 | 12482 ft | 202 kts | 278° |
| 2026-05-03 22:16 | 34.83022 | -95.87575 | 12480 ft | 201 kts | 279° |
| 2026-05-03 22:17 | 34.83215 | -95.89263 | 12480 ft | 201 kts | 279° |
| 2026-05-03 22:17 | 34.83406 | -95.90951 | 12483 ft | 201 kts | 278° |
| 2026-05-03 22:17 | 34.83595 | -95.92636 | 12483 ft | 201 kts | 278° |
| 2026-05-03 22:17 | 34.83783 | -95.94328 | 12480 ft | 202 kts | 278° |
| 2026-05-03 22:18 | 34.83972 | -95.96019 | 12479 ft | 202 kts | 278° |
| 2026-05-03 22:18 | 34.84162 | -95.97708 | 12480 ft | 201 kts | 278° |
| 2026-05-03 22:18 | 34.84352 | -95.99401 | 12481 ft | 201 kts | 278° |
| 2026-05-03 22:18 | 34.84541 | -96.01091 | 12479 ft | 202 kts | 278° |
| 2026-05-03 22:19 | 34.84733 | -96.02761 | 12482 ft | 202 kts | 278° |
| 2026-05-03 22:19 | 34.84925 | -96.04455 | 12481 ft | 202 kts | 278° |
| 2026-05-03 22:19 | 34.85113 | -96.06151 | 12478 ft | 202 kts | 278° |
| 2026-05-03 22:19 | 34.85297 | -96.07851 | 12480 ft | 202 kts | 278° |
| 2026-05-03 22:20 | 34.85483 | -96.09548 | 12480 ft | 202 kts | 278° |
| 2026-05-03 22:20 | 34.85669 | -96.11244 | 12481 ft | 202 kts | 278° |
| 2026-05-03 22:20 | 34.85855 | -96.12945 | 12479 ft | 202 kts | 278° |
| 2026-05-03 22:20 | 34.86043 | -96.14636 | 12484 ft | 202 kts | 278° |
| 2026-05-03 22:21 | 34.86230 | -96.16332 | 12482 ft | 202 kts | 278° |
| 2026-05-03 22:21 | 34.86414 | -96.18031 | 12477 ft | 202 kts | 278° |
| 2026-05-03 22:21 | 34.86600 | -96.19728 | 12479 ft | 202 kts | 278° |
| 2026-05-03 22:21 | 34.86787 | -96.21424 | 12482 ft | 202 kts | 278° |
| 2026-05-03 22:22 | 34.86974 | -96.23121 | 12479 ft | 202 kts | 278° |
| 2026-05-03 22:22 | 34.87160 | -96.24818 | 12479 ft | 202 kts | 278° |
| 2026-05-03 22:22 | 34.87347 | -96.26515 | 12482 ft | 202 kts | 278° |
| 2026-05-03 22:22 | 34.87533 | -96.28212 | 12477 ft | 202 kts | 278° |
| 2026-05-03 22:23 | 34.87719 | -96.29908 | 12479 ft | 202 kts | 278° |
| 2026-05-03 22:23 | 34.87904 | -96.31603 | 12482 ft | 202 kts | 278° |
| 2026-05-03 22:23 | 34.88088 | -96.33301 | 12482 ft | 202 kts | 278° |
| 2026-05-03 22:23 | 34.88274 | -96.34998 | 12481 ft | 202 kts | 278° |
| 2026-05-03 22:24 | 34.88456 | -96.36673 | 12479 ft | 202 kts | 277° |
| 2026-05-03 22:24 | 34.88639 | -96.38370 | 12479 ft | 202 kts | 278° |
| 2026-05-03 22:24 | 34.88822 | -96.40069 | 12475 ft | 202 kts | 278° |
| 2026-05-03 22:24 | 34.89007 | -96.41771 | 12470 ft | 203 kts | 278° |
| 2026-05-03 22:25 | 34.89192 | -96.43469 | 12475 ft | 203 kts | 277° |
| 2026-05-03 22:25 | 34.89377 | -96.45175 | 12472 ft | 203 kts | 278° |
| 2026-05-03 22:25 | 34.89561 | -96.46877 | 12469 ft | 203 kts | 277° |
| 2026-05-03 22:25 | 34.89743 | -96.48579 | 12471 ft | 203 kts | 277° |
| 2026-05-03 22:26 | 34.89926 | -96.50281 | 12472 ft | 203 kts | 277° |
| 2026-05-03 22:26 | 34.90109 | -96.51984 | 12468 ft | 203 kts | 277° |
| 2026-05-03 22:26 | 34.90292 | -96.53687 | 12475 ft | 203 kts | 277° |
| 2026-05-03 22:26 | 34.90474 | -96.55389 | 12478 ft | 202 kts | 277° |
| 2026-05-03 22:27 | 34.90655 | -96.57089 | 12480 ft | 202 kts | 277° |
| 2026-05-03 22:27 | 34.90833 | -96.58788 | 12480 ft | 202 kts | 277° |
| 2026-05-03 22:27 | 34.91013 | -96.60488 | 12479 ft | 202 kts | 277° |
| 2026-05-03 22:27 | 34.91193 | -96.62187 | 12480 ft | 202 kts | 277° |
| 2026-05-03 22:28 | 34.91373 | -96.63885 | 12484 ft | 202 kts | 277° |
| 2026-05-03 22:28 | 34.91556 | -96.65588 | 12481 ft | 203 kts | 277° |
| 2026-05-03 22:28 | 34.91736 | -96.67268 | 12480 ft | 203 kts | 277° |
| 2026-05-03 22:28 | 34.91917 | -96.68971 | 12481 ft | 203 kts | 277° |
| 2026-05-03 22:29 | 34.92098 | -96.70674 | 12480 ft | 203 kts | 277° |
| 2026-05-03 22:29 | 34.92279 | -96.72376 | 12484 ft | 203 kts | 277° |
| 2026-05-03 22:29 | 34.92459 | -96.74079 | 12479 ft | 203 kts | 277° |
| 2026-05-03 22:29 | 34.92638 | -96.75782 | 12480 ft | 202 kts | 277° |
| 2026-05-03 22:30 | 34.92817 | -96.77489 | 12483 ft | 203 kts | 277° |
| 2026-05-03 22:30 | 34.92995 | -96.79192 | 12482 ft | 203 kts | 277° |
| 2026-05-03 22:30 | 34.93175 | -96.80903 | 12478 ft | 203 kts | 277° |
| 2026-05-03 22:30 | 34.93353 | -96.82611 | 12480 ft | 203 kts | 277° |
| 2026-05-03 22:31 | 34.93531 | -96.84319 | 12478 ft | 203 kts | 277° |
| 2026-05-03 22:31 | 34.93709 | -96.86026 | 12478 ft | 203 kts | 277° |
| 2026-05-03 22:31 | 34.93888 | -96.87735 | 12485 ft | 203 kts | 277° |
| 2026-05-03 22:31 | 34.94065 | -96.89438 | 12479 ft | 203 kts | 277° |
| 2026-05-03 22:32 | 34.94243 | -96.91148 | 12480 ft | 203 kts | 277° |
| 2026-05-03 22:32 | 34.94421 | -96.92855 | 12483 ft | 203 kts | 277° |
| 2026-05-03 22:32 | 34.94596 | -96.94540 | 12481 ft | 203 kts | 277° |
| 2026-05-03 22:32 | 34.94772 | -96.96247 | 12482 ft | 203 kts | 277° |
| 2026-05-03 22:33 | 34.94948 | -96.97950 | 12488 ft | 202 kts | 277° |
| 2026-05-03 22:33 | 34.95124 | -96.99652 | 12493 ft | 202 kts | 277° |
| 2026-05-03 22:33 | 34.95299 | -97.01356 | 12488 ft | 203 kts | 277° |
| 2026-05-03 22:33 | 34.95475 | -97.03059 | 12491 ft | 202 kts | 277° |
| 2026-05-03 22:34 | 34.95650 | -97.04763 | 12489 ft | 203 kts | 277° |
| 2026-05-03 22:34 | 34.95827 | -97.06469 | 12490 ft | 203 kts | 277° |
| 2026-05-03 22:34 | 34.96002 | -97.08179 | 12488 ft | 203 kts | 277° |
| 2026-05-03 22:34 | 34.96175 | -97.09882 | 12489 ft | 203 kts | 277° |
| 2026-05-03 22:35 | 34.96349 | -97.11587 | 12492 ft | 203 kts | 277° |
| 2026-05-03 22:35 | 34.96523 | -97.13293 | 12491 ft | 203 kts | 277° |
| 2026-05-03 22:35 | 34.96697 | -97.15002 | 12488 ft | 203 kts | 277° |
| 2026-05-03 22:35 | 34.96871 | -97.16710 | 12489 ft | 203 kts | 277° |
| 2026-05-03 22:36 | 34.97044 | -97.18418 | 12491 ft | 203 kts | 277° |
| 2026-05-03 22:36 | 34.97218 | -97.20131 | 12491 ft | 203 kts | 277° |
| 2026-05-03 22:36 | 34.97392 | -97.21841 | 12489 ft | 203 kts | 277° |
| 2026-05-03 22:36 | 34.97566 | -97.23552 | 12489 ft | 203 kts | 277° |
| 2026-05-03 22:37 | 34.97739 | -97.25265 | 12488 ft | 203 kts | 277° |
| 2026-05-03 22:37 | 34.97910 | -97.26951 | 12490 ft | 203 kts | 277° |
| 2026-05-03 22:37 | 34.98082 | -97.28660 | 12487 ft | 203 kts | 277° |
| 2026-05-03 22:37 | 34.98256 | -97.30393 | 12481 ft | 203 kts | 277° |
| 2026-05-03 22:38 | 34.98426 | -97.32078 | 12478 ft | 203 kts | 277° |
| 2026-05-03 22:38 | 34.98598 | -97.33787 | 12480 ft | 203 kts | 276° |
| 2026-05-03 22:38 | 34.98768 | -97.35496 | 12482 ft | 203 kts | 276° |
| 2026-05-03 22:38 | 34.98938 | -97.37205 | 12479 ft | 203 kts | 276° |
| 2026-05-03 22:39 | 34.99109 | -97.38914 | 12480 ft | 203 kts | 276° |
| 2026-05-03 22:39 | 34.99280 | -97.40625 | 12471 ft | 203 kts | 276° |
| 2026-05-03 22:39 | 34.99450 | -97.42337 | 12469 ft | 203 kts | 276° |
| 2026-05-03 22:39 | 34.99621 | -97.44048 | 12469 ft | 203 kts | 276° |
| 2026-05-03 22:40 | 34.99791 | -97.45757 | 12470 ft | 203 kts | 276° |
| 2026-05-03 22:40 | 34.99960 | -97.47460 | 12472 ft | 203 kts | 276° |
| 2026-05-03 22:40 | 35.00130 | -97.49169 | 12470 ft | 203 kts | 276° |
| 2026-05-03 22:40 | 35.00299 | -97.50882 | 12470 ft | 203 kts | 276° |
| 2026-05-03 22:41 | 35.00468 | -97.52592 | 12474 ft | 203 kts | 276° |
| 2026-05-03 22:41 | 35.00638 | -97.54306 | 12471 ft | 203 kts | 276° |
| 2026-05-03 22:41 | 35.00750 | -97.55440 | 12472 ft | 203 kts | 276° |
| 2026-05-03 22:41 | 35.00917 | -97.57150 | 12471 ft | 203 kts | 276° |
| 2026-05-03 22:42 | 35.01085 | -97.58863 | 12475 ft | 203 kts | 276° |
| 2026-05-03 22:42 | 35.01306 | -97.61127 | 12471 ft | 203 kts | 276° |
| 2026-05-03 22:42 | 35.01474 | -97.62839 | 12466 ft | 203 kts | 276° |
| 2026-05-03 22:42 | 35.01589 | -97.64001 | 12462 ft | 203 kts | 276° |
| 2026-05-03 22:43 | 35.01757 | -97.65714 | 12461 ft | 203 kts | 276° |
| 2026-05-03 22:43 | 35.01922 | -97.67424 | 12463 ft | 203 kts | 276° |
| 2026-05-03 22:43 | 35.02088 | -97.69136 | 12462 ft | 203 kts | 276° |
| 2026-05-03 22:43 | 35.02255 | -97.70848 | 12462 ft | 203 kts | 276° |
| 2026-05-03 22:44 | 35.02421 | -97.72560 | 12463 ft | 203 kts | 276° |
| 2026-05-03 22:44 | 35.02587 | -97.74271 | 12461 ft | 203 kts | 276° |
| 2026-05-03 22:44 | 35.02750 | -97.75961 | 12461 ft | 203 kts | 276° |
| 2026-05-03 22:44 | 35.02915 | -97.77673 | 12462 ft | 203 kts | 276° |
| 2026-05-03 22:45 | 35.03080 | -97.79384 | 12462 ft | 203 kts | 276° |
| 2026-05-03 22:45 | 35.03245 | -97.81096 | 12462 ft | 203 kts | 276° |
| 2026-05-03 22:45 | 35.03410 | -97.82808 | 12463 ft | 203 kts | 276° |
| 2026-05-03 22:45 | 35.03576 | -97.84523 | 12473 ft | 203 kts | 276° |
| 2026-05-03 22:46 | 35.03739 | -97.86229 | 12471 ft | 203 kts | 276° |
| 2026-05-03 22:46 | 35.03903 | -97.87940 | 12471 ft | 203 kts | 276° |
| 2026-05-03 22:46 | 35.04068 | -97.89660 | 12464 ft | 203 kts | 276° |
| 2026-05-03 22:46 | 35.04230 | -97.91375 | 12460 ft | 203 kts | 276° |
| 2026-05-03 22:47 | 35.04394 | -97.93083 | 12461 ft | 202 kts | 276° |
| 2026-05-03 22:47 | 35.04557 | -97.94790 | 12454 ft | 202 kts | 276° |
| 2026-05-03 22:47 | 35.04721 | -97.96500 | 12452 ft | 202 kts | 276° |
| 2026-05-03 22:47 | 35.04882 | -97.98207 | 12450 ft | 202 kts | 276° |
| 2026-05-03 22:48 | 35.05044 | -97.99914 | 12443 ft | 203 kts | 276° |
| 2026-05-03 22:48 | 35.05209 | -98.01622 | 12443 ft | 203 kts | 276° |
| 2026-05-03 22:48 | 35.05374 | -98.03328 | 12444 ft | 203 kts | 276° |
| 2026-05-03 22:48 | 35.05535 | -98.05038 | 12443 ft | 203 kts | 275° |
| 2026-05-03 22:49 | 35.05695 | -98.06752 | 12443 ft | 202 kts | 275° |
| 2026-05-03 22:49 | 35.05854 | -98.08452 | 12443 ft | 202 kts | 275° |
| 2026-05-03 22:49 | 35.06013 | -98.10158 | 12444 ft | 202 kts | 275° |
| 2026-05-03 22:49 | 35.06170 | -98.11856 | 12444 ft | 202 kts | 275° |
| 2026-05-03 22:50 | 35.06326 | -98.13539 | 12444 ft | 202 kts | 275° |
| 2026-05-03 22:50 | 35.06486 | -98.15262 | 12443 ft | 202 kts | 275° |
| 2026-05-03 22:50 | 35.06642 | -98.16947 | 12444 ft | 202 kts | 275° |
| 2026-05-03 22:50 | 35.06801 | -98.18650 | 12443 ft | 202 kts | 275° |
| 2026-05-03 22:51 | 35.06960 | -98.20354 | 12443 ft | 202 kts | 275° |
| 2026-05-03 22:51 | 35.07118 | -98.22058 | 12443 ft | 202 kts | 275° |
| 2026-05-03 22:51 | 35.07276 | -98.23761 | 12443 ft | 202 kts | 275° |
| 2026-05-03 22:51 | 35.07434 | -98.25464 | 12444 ft | 202 kts | 275° |
| 2026-05-03 22:52 | 35.07591 | -98.27167 | 12444 ft | 202 kts | 275° |
| 2026-05-03 22:52 | 35.07750 | -98.28874 | 12441 ft | 202 kts | 275° |
| 2026-05-03 22:52 | 35.07907 | -98.30577 | 12436 ft | 202 kts | 275° |
| 2026-05-03 22:52 | 35.08064 | -98.32283 | 12433 ft | 202 kts | 275° |
| 2026-05-03 22:53 | 35.08221 | -98.33992 | 12433 ft | 202 kts | 275° |
| 2026-05-03 22:53 | 35.08378 | -98.35701 | 12435 ft | 202 kts | 275° |
| 2026-05-03 22:53 | 35.08534 | -98.37406 | 12435 ft | 202 kts | 275° |
| 2026-05-03 22:53 | 35.08688 | -98.39094 | 12434 ft | 202 kts | 275° |
| 2026-05-03 22:54 | 35.08849 | -98.40799 | 12434 ft | 202 kts | 276° |
| 2026-05-03 22:54 | 35.09095 | -98.42491 | 12432 ft | 202 kts | 281° |
| 2026-05-03 22:54 | 35.09404 | -98.44167 | 12435 ft | 202 kts | 281° |
| 2026-05-03 22:54 | 35.09722 | -98.45846 | 12436 ft | 203 kts | 281° |
| 2026-05-03 22:55 | 35.10042 | -98.47522 | 12433 ft | 203 kts | 281° |
| 2026-05-03 22:55 | 35.10363 | -98.49197 | 12435 ft | 203 kts | 281° |
| 2026-05-03 22:55 | 35.10684 | -98.50874 | 12435 ft | 203 kts | 281° |
| 2026-05-03 22:55 | 35.11005 | -98.52551 | 12434 ft | 203 kts | 281° |
| 2026-05-03 22:56 | 35.11324 | -98.54229 | 12434 ft | 203 kts | 281° |
| 2026-05-03 22:56 | 35.11644 | -98.55908 | 12433 ft | 203 kts | 281° |
| 2026-05-03 22:56 | 35.11958 | -98.57568 | 12434 ft | 203 kts | 281° |
| 2026-05-03 22:56 | 35.12276 | -98.59242 | 12434 ft | 203 kts | 281° |
| 2026-05-03 22:57 | 35.12593 | -98.60922 | 12434 ft | 203 kts | 281° |
| 2026-05-03 22:57 | 35.12911 | -98.62598 | 12433 ft | 202 kts | 281° |
| 2026-05-03 22:57 | 35.13228 | -98.64270 | 12435 ft | 202 kts | 281° |
| 2026-05-03 22:57 | 35.13542 | -98.65942 | 12435 ft | 202 kts | 281° |
| 2026-05-03 22:58 | 35.13858 | -98.67620 | 12435 ft | 202 kts | 281° |
| 2026-05-03 22:58 | 35.14173 | -98.69296 | 12434 ft | 202 kts | 281° |
| 2026-05-03 22:58 | 35.14488 | -98.70971 | 12434 ft | 202 kts | 281° |
| 2026-05-03 22:58 | 35.14803 | -98.72647 | 12434 ft | 202 kts | 281° |
| 2026-05-03 22:59 | 35.15118 | -98.74326 | 12435 ft | 202 kts | 281° |
| 2026-05-03 22:59 | 35.15432 | -98.75999 | 12435 ft | 202 kts | 281° |
| 2026-05-03 22:59 | 35.15747 | -98.77675 | 12433 ft | 202 kts | 281° |
| 2026-05-03 22:59 | 35.16061 | -98.79352 | 12434 ft | 202 kts | 281° |
| 2026-05-03 23:00 | 35.16375 | -98.81029 | 12436 ft | 203 kts | 281° |
| 2026-05-03 23:00 | 35.16686 | -98.82689 | 12434 ft | 203 kts | 281° |
| 2026-05-03 23:00 | 35.16999 | -98.84369 | 12434 ft | 203 kts | 281° |
| 2026-05-03 23:00 | 35.17317 | -98.86074 | 12434 ft | 203 kts | 281° |
| 2026-05-03 23:01 | 35.17627 | -98.87731 | 12433 ft | 203 kts | 281° |
| 2026-05-03 23:01 | 35.17939 | -98.89411 | 12435 ft | 203 kts | 281° |
| 2026-05-03 23:01 | 35.18252 | -98.91090 | 12434 ft | 203 kts | 281° |
| 2026-05-03 23:01 | 35.18566 | -98.92769 | 12434 ft | 202 kts | 281° |
| 2026-05-03 23:02 | 35.18880 | -98.94447 | 12435 ft | 202 kts | 280° |
| 2026-05-03 23:02 | 35.19191 | -98.96122 | 12434 ft | 202 kts | 281° |
| 2026-05-03 23:02 | 35.19502 | -98.97798 | 12433 ft | 202 kts | 280° |
| 2026-05-03 23:02 | 35.19813 | -98.99474 | 12434 ft | 202 kts | 280° |
| 2026-05-03 23:03 | 35.20123 | -99.01150 | 12434 ft | 202 kts | 280° |
| 2026-05-03 23:03 | 35.20432 | -99.02827 | 12435 ft | 202 kts | 280° |
| 2026-05-03 23:03 | 35.20742 | -99.04505 | 12434 ft | 202 kts | 280° |
| 2026-05-03 23:03 | 35.21052 | -99.06182 | 12435 ft | 202 kts | 280° |
| 2026-05-03 23:04 | 35.21365 | -99.07864 | 12434 ft | 202 kts | 281° |
| 2026-05-03 23:04 | 35.21683 | -99.09540 | 12434 ft | 202 kts | 281° |
| 2026-05-03 23:04 | 35.22000 | -99.11214 | 12435 ft | 202 kts | 281° |
| 2026-05-03 23:04 | 35.22314 | -99.12897 | 12434 ft | 203 kts | 280° |
| 2026-05-03 23:05 | 35.22625 | -99.14570 | 12434 ft | 202 kts | 280° |
| 2026-05-03 23:05 | 35.22931 | -99.16223 | 12434 ft | 202 kts | 280° |
| 2026-05-03 23:05 | 35.23239 | -99.17898 | 12434 ft | 202 kts | 280° |
| 2026-05-03 23:05 | 35.23545 | -99.19574 | 12435 ft | 202 kts | 279° |
| 2026-05-03 23:06 | 35.23729 | -99.21272 | 12437 ft | 201 kts | 270° |
| 2026-05-03 23:06 | 35.23752 | -99.22980 | 12431 ft | 200 kts | 269° |
| 2026-05-03 23:06 | 35.23770 | -99.24684 | 12433 ft | 200 kts | 269° |
| 2026-05-03 23:06 | 35.23787 | -99.26387 | 12434 ft | 200 kts | 269° |
| 2026-05-03 23:07 | 35.23804 | -99.28090 | 12432 ft | 200 kts | 269° |
| 2026-05-03 23:07 | 35.23821 | -99.29796 | 12424 ft | 201 kts | 269° |
| 2026-05-03 23:07 | 35.23837 | -99.31501 | 12422 ft | 200 kts | 269° |
| 2026-05-03 23:07 | 35.23852 | -99.33207 | 12416 ft | 201 kts | 269° |
| 2026-05-03 23:08 | 35.23866 | -99.34913 | 12414 ft | 200 kts | 269° |
| 2026-05-03 23:08 | 35.23882 | -99.36615 | 12416 ft | 200 kts | 268° |
| 2026-05-03 23:08 | 35.23896 | -99.38313 | 12417 ft | 200 kts | 268° |
| 2026-05-03 23:08 | 35.23909 | -99.40011 | 12416 ft | 200 kts | 268° |
| 2026-05-03 23:09 | 35.23922 | -99.41711 | 12409 ft | 200 kts | 268° |
| 2026-05-03 23:09 | 35.23936 | -99.43410 | 12406 ft | 200 kts | 268° |
| 2026-05-03 23:09 | 35.23948 | -99.45110 | 12406 ft | 200 kts | 268° |
| 2026-05-03 23:09 | 35.23960 | -99.46810 | 12407 ft | 200 kts | 268° |
| 2026-05-03 23:10 | 35.23971 | -99.48509 | 12406 ft | 200 kts | 268° |
| 2026-05-03 23:10 | 35.23982 | -99.50208 | 12405 ft | 200 kts | 268° |
| 2026-05-03 23:10 | 35.23994 | -99.51907 | 12407 ft | 200 kts | 268° |
| 2026-05-03 23:10 | 35.24005 | -99.53606 | 12407 ft | 200 kts | 268° |
| 2026-05-03 23:11 | 35.24017 | -99.55310 | 12407 ft | 200 kts | 268° |
| 2026-05-03 23:11 | 35.24028 | -99.57008 | 12406 ft | 200 kts | 268° |
| 2026-05-03 23:11 | 35.24040 | -99.58686 | 12407 ft | 200 kts | 268° |
| 2026-05-03 23:11 | 35.24052 | -99.60380 | 12408 ft | 199 kts | 268° |
| 2026-05-03 23:12 | 35.24062 | -99.62074 | 12407 ft | 199 kts | 268° |
| 2026-05-03 23:12 | 35.24071 | -99.63762 | 12450 ft | 197 kts | 268° |
| 2026-05-03 23:12 | 35.24080 | -99.65422 | 12535 ft | 194 kts | 268° |
| 2026-05-03 23:12 | 35.24089 | -99.67084 | 12529 ft | 197 kts | 268° |
| 2026-05-03 23:13 | 35.24097 | -99.68763 | 12513 ft | 198 kts | 268° |
| 2026-05-03 23:13 | 35.24107 | -99.70452 | 12512 ft | 199 kts | 268° |
| 2026-05-03 23:13 | 35.24116 | -99.72144 | 12514 ft | 199 kts | 268° |
| 2026-05-03 23:13 | 35.24125 | -99.73837 | 12513 ft | 199 kts | 268° |
| 2026-05-03 23:14 | 35.24131 | -99.75531 | 12512 ft | 199 kts | 268° |
| 2026-05-03 23:14 | 35.24139 | -99.77223 | 12512 ft | 199 kts | 268° |
| 2026-05-03 23:14 | 35.24146 | -99.78917 | 12514 ft | 199 kts | 268° |
| 2026-05-03 23:14 | 35.24153 | -99.80614 | 12512 ft | 199 kts | 268° |
| 2026-05-03 23:15 | 35.24161 | -99.82308 | 12512 ft | 199 kts | 268° |
| 2026-05-03 23:15 | 35.24169 | -99.84002 | 12514 ft | 199 kts | 268° |
| 2026-05-03 23:15 | 35.24175 | -99.85701 | 12512 ft | 199 kts | 268° |
| 2026-05-03 23:15 | 35.24183 | -99.87374 | 12513 ft | 199 kts | 268° |
| 2026-05-03 23:16 | 35.24190 | -99.89071 | 12513 ft | 200 kts | 268° |
| 2026-05-03 23:16 | 35.24199 | -99.90775 | 12514 ft | 201 kts | 268° |
| 2026-05-03 23:16 | 35.24207 | -99.92481 | 12514 ft | 200 kts | 268° |
| 2026-05-03 23:16 | 35.24216 | -99.94179 | 12513 ft | 198 kts | 268° |
| 2026-05-03 23:17 | 35.24225 | -99.95844 | 12503 ft | 194 kts | 268° |
| 2026-05-03 23:17 | 35.24231 | -99.97478 | 12501 ft | 190 kts | 267° |
| 2026-05-03 23:17 | 35.24234 | -99.99085 | 12509 ft | 187 kts | 267° |
| 2026-05-03 23:17 | 35.24238 | -100.00670 | 12515 ft | 185 kts | 267° |
| 2026-05-03 23:18 | 35.24246 | -100.02240 | 12512 ft | 184 kts | 267° |
| 2026-05-03 23:18 | 35.24249 | -100.03801 | 12510 ft | 183 kts | 267° |
| 2026-05-03 23:18 | 35.24251 | -100.05355 | 12512 ft | 182 kts | 267° |
| 2026-05-03 23:18 | 35.24252 | -100.06902 | 12515 ft | 182 kts | 267° |
| 2026-05-03 23:19 | 35.24254 | -100.08445 | 12514 ft | 181 kts | 267° |
| 2026-05-03 23:19 | 35.24257 | -100.09987 | 12511 ft | 181 kts | 267° |
| 2026-05-03 23:19 | 35.24259 | -100.11527 | 12512 ft | 181 kts | 267° |
| 2026-05-03 23:19 | 35.24261 | -100.13064 | 12513 ft | 181 kts | 267° |
| 2026-05-03 23:20 | 35.24264 | -100.14580 | 12513 ft | 180 kts | 267° |
| 2026-05-03 23:20 | 35.24266 | -100.16115 | 12512 ft | 180 kts | 267° |
| 2026-05-03 23:20 | 35.24269 | -100.17649 | 12513 ft | 180 kts | 267° |
| 2026-05-03 23:20 | 35.24271 | -100.19186 | 12511 ft | 180 kts | 267° |
| 2026-05-03 23:21 | 35.24271 | -100.20721 | 12514 ft | 181 kts | 267° |
| 2026-05-03 23:21 | 35.24272 | -100.22263 | 12512 ft | 181 kts | 267° |
| 2026-05-03 23:21 | 35.24274 | -100.23808 | 12512 ft | 181 kts | 267° |
| 2026-05-03 23:21 | 35.24276 | -100.25350 | 12511 ft | 181 kts | 267° |
| 2026-05-03 23:22 | 35.24278 | -100.28429 | 12511 ft | 181 kts | 267° |
| 2026-05-03 23:22 | 35.24280 | -100.29978 | 12504 ft | 182 kts | 267° |
| 2026-05-03 23:22 | 35.24281 | -100.31524 | 12502 ft | 182 kts | 267° |
| 2026-05-03 23:23 | 35.24281 | -100.33068 | 12503 ft | 181 kts | 267° |
| 2026-05-03 23:23 | 35.24281 | -100.34612 | 12504 ft | 181 kts | 267° |
| 2026-05-03 23:23 | 35.24281 | -100.36158 | 12503 ft | 181 kts | 267° |
| 2026-05-03 23:23 | 35.24281 | -100.37701 | 12504 ft | 181 kts | 267° |
| 2026-05-03 23:24 | 35.24280 | -100.39244 | 12504 ft | 182 kts | 267° |
| 2026-05-03 23:24 | 35.24280 | -100.40789 | 12504 ft | 182 kts | 267° |
| 2026-05-03 23:24 | 35.24279 | -100.42312 | 12508 ft | 181 kts | 267° |
| 2026-05-03 23:24 | 35.24278 | -100.43856 | 12514 ft | 181 kts | 267° |
| 2026-05-03 23:25 | 35.24278 | -100.45398 | 12512 ft | 181 kts | 267° |
| 2026-05-03 23:25 | 35.24277 | -100.46944 | 12513 ft | 181 kts | 267° |
| 2026-05-03 23:25 | 35.24275 | -100.48487 | 12513 ft | 181 kts | 267° |
| 2026-05-03 23:25 | 35.24273 | -100.50029 | 12513 ft | 181 kts | 267° |
| 2026-05-03 23:26 | 35.24271 | -100.51571 | 12513 ft | 181 kts | 267° |
| 2026-05-03 23:26 | 35.24269 | -100.53112 | 12513 ft | 181 kts | 267° |
| 2026-05-03 23:26 | 35.24268 | -100.54655 | 12513 ft | 181 kts | 267° |
| 2026-05-03 23:26 | 35.24266 | -100.56197 | 12512 ft | 181 kts | 267° |
| 2026-05-03 23:27 | 35.24263 | -100.57738 | 12513 ft | 181 kts | 267° |
| 2026-05-03 23:27 | 35.24260 | -100.59280 | 12517 ft | 181 kts | 267° |
| 2026-05-03 23:27 | 35.24257 | -100.60819 | 12532 ft | 181 kts | 267° |
| 2026-05-03 23:27 | 35.24254 | -100.62355 | 12523 ft | 180 kts | 267° |
| 2026-05-03 23:28 | 35.24251 | -100.63890 | 12521 ft | 180 kts | 267° |
| 2026-05-03 23:28 | 35.24248 | -100.65429 | 12522 ft | 181 kts | 267° |
| 2026-05-03 23:28 | 35.24244 | -100.66965 | 12522 ft | 180 kts | 267° |
| 2026-05-03 23:28 | 35.24240 | -100.68496 | 12520 ft | 179 kts | 267° |
| 2026-05-03 23:29 | 35.24236 | -100.70012 | 12523 ft | 178 kts | 267° |
| 2026-05-03 23:29 | 35.24232 | -100.71521 | 12519 ft | 177 kts | 267° |
| 2026-05-03 23:29 | 35.24227 | -100.73022 | 12521 ft | 176 kts | 267° |
| 2026-05-03 23:29 | 35.24222 | -100.74494 | 12525 ft | 175 kts | 267° |
| 2026-05-03 23:30 | 35.24217 | -100.75981 | 12520 ft | 173 kts | 267° |
| 2026-05-03 23:30 | 35.24218 | -100.77372 | 12506 ft | 154 kts | 267° |
| 2026-05-03 23:30 | 35.24225 | -100.78569 | 12482 ft | 129 kts | 265° |
| 2026-05-03 23:30 | 35.24212 | -100.79731 | 12538 ft | 144 kts | 265° |
| 2026-05-03 23:31 | 35.24196 | -100.80584 | 12559 ft | 154 kts | 265° |
| 2026-05-03 23:31 | 35.24169 | -100.82422 | 12539 ft | 172 kts | 266° |
| 2026-05-03 23:31 | 35.24161 | -100.83930 | 12525 ft | 182 kts | 267° |
| 2026-05-03 23:31 | 35.24158 | -100.84989 | 12524 ft | 186 kts | 267° |
| 2026-05-03 23:32 | 35.24157 | -100.86607 | 12452 ft | 195 kts | 267° |
| 2026-05-03 23:32 | 35.24167 | -100.88275 | 12351 ft | 202 kts | 271° |
| 2026-05-03 23:32 | 35.24416 | -100.89991 | 12222 ft | 209 kts | 284° |
| 2026-05-03 23:32 | 35.24914 | -100.91687 | 12142 ft | 213 kts | 286° |
| 2026-05-03 23:33 | 35.25408 | -100.93413 | 12049 ft | 216 kts | 285° |
| 2026-05-03 23:33 | 35.25894 | -100.95153 | 11978 ft | 216 kts | 285° |
| 2026-05-03 23:33 | 35.26377 | -100.96895 | 11914 ft | 216 kts | 285° |
| 2026-05-03 23:33 | 35.26859 | -100.98640 | 11851 ft | 216 kts | 285° |
| 2026-05-03 23:34 | 35.27340 | -101.00383 | 11785 ft | 217 kts | 285° |
| 2026-05-03 23:34 | 35.27824 | -101.02134 | 11717 ft | 217 kts | 285° |
| 2026-05-03 23:34 | 35.28306 | -101.03883 | 11667 ft | 217 kts | 285° |
| 2026-05-03 23:34 | 35.28786 | -101.05629 | 11608 ft | 217 kts | 285° |
| 2026-05-03 23:35 | 35.29269 | -101.07383 | 11550 ft | 217 kts | 285° |
| 2026-05-03 23:35 | 35.29749 | -101.09132 | 11516 ft | 215 kts | 285° |
| 2026-05-03 23:35 | 35.30219 | -101.10841 | 11652 ft | 207 kts | 285° |
| 2026-05-03 23:35 | 35.30671 | -101.12478 | 11818 ft | 200 kts | 284° |
| 2026-05-03 23:36 | 35.31103 | -101.14053 | 11953 ft | 196 kts | 284° |
| 2026-05-03 23:36 | 35.31552 | -101.15702 | 12029 ft | 196 kts | 284° |
| 2026-05-03 23:36 | 35.31969 | -101.17240 | 12024 ft | 200 kts | 284° |
| 2026-05-03 23:36 | 35.32418 | -101.18883 | 11965 ft | 205 kts | 284° |
| 2026-05-03 23:37 | 35.32873 | -101.20541 | 11997 ft | 205 kts | 285° |
| 2026-05-03 23:37 | 35.33328 | -101.22191 | 12006 ft | 205 kts | 285° |
| 2026-05-03 23:37 | 35.33784 | -101.23854 | 11988 ft | 207 kts | 284° |
| 2026-05-03 23:37 | 35.34241 | -101.25526 | 11988 ft | 207 kts | 285° |
| 2026-05-03 23:38 | 35.34701 | -101.27204 | 11993 ft | 207 kts | 285° |
| 2026-05-03 23:38 | 35.35160 | -101.28879 | 11993 ft | 207 kts | 285° |
| 2026-05-03 23:38 | 35.35620 | -101.30555 | 11991 ft | 208 kts | 285° |
| 2026-05-03 23:38 | 35.36080 | -101.32234 | 11980 ft | 208 kts | 284° |
| 2026-05-03 23:39 | 35.36536 | -101.33911 | 11983 ft | 208 kts | 285° |
| 2026-05-03 23:39 | 35.36996 | -101.35593 | 12001 ft | 207 kts | 284° |
| 2026-05-03 23:39 | 35.37451 | -101.37265 | 12001 ft | 207 kts | 284° |
| 2026-05-03 23:39 | 35.37904 | -101.38923 | 11998 ft | 208 kts | 284° |
| 2026-05-03 23:40 | 35.38362 | -101.40600 | 11998 ft | 207 kts | 284° |
| 2026-05-03 23:40 | 35.38819 | -101.42277 | 11999 ft | 207 kts | 284° |
| 2026-05-03 23:40 | 35.39274 | -101.43954 | 11998 ft | 207 kts | 285° |
| 2026-05-03 23:40 | 35.39731 | -101.45631 | 11998 ft | 207 kts | 284° |
| 2026-05-03 23:41 | 35.40186 | -101.47307 | 11999 ft | 207 kts | 284° |
| 2026-05-03 23:41 | 35.40642 | -101.48985 | 12000 ft | 207 kts | 284° |
| 2026-05-03 23:41 | 35.41097 | -101.50663 | 11998 ft | 207 kts | 284° |
| 2026-05-03 23:41 | 35.41551 | -101.52340 | 11999 ft | 207 kts | 284° |
| 2026-05-03 23:42 | 35.42005 | -101.54019 | 11998 ft | 208 kts | 284° |
| 2026-05-03 23:42 | 35.42461 | -101.55698 | 11998 ft | 208 kts | 284° |
| 2026-05-03 23:42 | 35.42915 | -101.57377 | 11999 ft | 207 kts | 284° |
| 2026-05-03 23:42 | 35.43370 | -101.59056 | 11998 ft | 207 kts | 284° |
| 2026-05-03 23:43 | 35.43823 | -101.60735 | 11999 ft | 207 kts | 284° |
| 2026-05-03 23:43 | 35.44277 | -101.62414 | 11998 ft | 207 kts | 284° |
| 2026-05-03 23:43 | 35.44727 | -101.64070 | 11998 ft | 207 kts | 284° |
| 2026-05-03 23:43 | 35.45178 | -101.65744 | 12000 ft | 207 kts | 284° |
| 2026-05-03 23:44 | 35.45629 | -101.67417 | 11997 ft | 206 kts | 284° |
| 2026-05-03 23:44 | 35.46078 | -101.69090 | 11998 ft | 206 kts | 284° |
| 2026-05-03 23:44 | 35.46528 | -101.70762 | 11999 ft | 207 kts | 284° |
| 2026-05-03 23:44 | 35.46978 | -101.72436 | 11999 ft | 207 kts | 284° |
| 2026-05-03 23:45 | 35.47429 | -101.74111 | 11999 ft | 207 kts | 284° |
| 2026-05-03 23:45 | 35.47882 | -101.75791 | 11999 ft | 207 kts | 284° |
| 2026-05-03 23:45 | 35.48333 | -101.77469 | 11996 ft | 207 kts | 284° |
| 2026-05-03 23:45 | 35.48782 | -101.79147 | 11999 ft | 207 kts | 284° |
| 2026-05-03 23:46 | 35.49231 | -101.80827 | 11997 ft | 207 kts | 284° |
| 2026-05-03 23:46 | 35.49680 | -101.82506 | 12000 ft | 207 kts | 284° |
| 2026-05-03 23:46 | 35.50129 | -101.84185 | 12000 ft | 207 kts | 284° |
| 2026-05-03 23:46 | 35.50579 | -101.85864 | 11998 ft | 207 kts | 284° |
| 2026-05-03 23:47 | 35.51028 | -101.87540 | 11998 ft | 207 kts | 284° |
| 2026-05-03 23:47 | 35.51477 | -101.89219 | 11997 ft | 207 kts | 284° |
| 2026-05-03 23:47 | 35.51925 | -101.90897 | 11999 ft | 207 kts | 284° |
| 2026-05-03 23:47 | 35.52368 | -101.92556 | 11999 ft | 207 kts | 284° |
| 2026-05-03 23:48 | 35.52822 | -101.94256 | 11999 ft | 207 kts | 284° |
| 2026-05-03 23:48 | 35.53264 | -101.95914 | 11995 ft | 207 kts | 284° |
| 2026-05-03 23:48 | 35.53712 | -101.97598 | 11990 ft | 207 kts | 284° |
| 2026-05-03 23:48 | 35.54160 | -101.99279 | 11989 ft | 207 kts | 284° |
| 2026-05-03 23:49 | 35.54606 | -102.00955 | 11987 ft | 206 kts | 284° |
| 2026-05-03 23:49 | 35.55052 | -102.02628 | 11987 ft | 206 kts | 284° |
| 2026-05-03 23:49 | 35.55496 | -102.04301 | 11992 ft | 206 kts | 284° |
| 2026-05-03 23:49 | 35.55937 | -102.05975 | 11991 ft | 206 kts | 284° |
| 2026-05-03 23:50 | 35.56376 | -102.07649 | 11990 ft | 206 kts | 284° |
| 2026-05-03 23:50 | 35.56818 | -102.09321 | 11990 ft | 206 kts | 284° |
| 2026-05-03 23:50 | 35.57259 | -102.10991 | 11989 ft | 205 kts | 284° |
| 2026-05-03 23:50 | 35.57701 | -102.12664 | 11986 ft | 206 kts | 284° |
| 2026-05-03 23:51 | 35.58142 | -102.14328 | 11993 ft | 205 kts | 284° |
| 2026-05-03 23:51 | 35.58585 | -102.15998 | 11990 ft | 205 kts | 284° |
| 2026-05-03 23:51 | 35.59026 | -102.17664 | 11993 ft | 205 kts | 284° |
| 2026-05-03 23:51 | 35.59462 | -102.19313 | 11987 ft | 205 kts | 284° |
| 2026-05-03 23:52 | 35.59903 | -102.20984 | 11991 ft | 206 kts | 284° |
| 2026-05-03 23:52 | 35.60345 | -102.22655 | 11986 ft | 206 kts | 284° |
| 2026-05-03 23:52 | 35.60785 | -102.24325 | 11991 ft | 205 kts | 284° |
| 2026-05-03 23:52 | 35.61224 | -102.25996 | 11984 ft | 205 kts | 284° |
| 2026-05-03 23:53 | 35.61664 | -102.27666 | 11988 ft | 205 kts | 284° |
| 2026-05-03 23:53 | 35.62105 | -102.29337 | 11985 ft | 205 kts | 284° |
| 2026-05-03 23:53 | 35.62546 | -102.31006 | 11993 ft | 205 kts | 284° |
| 2026-05-03 23:53 | 35.62986 | -102.32677 | 11990 ft | 205 kts | 284° |
| 2026-05-03 23:54 | 35.63424 | -102.34347 | 11988 ft | 205 kts | 284° |
| 2026-05-03 23:54 | 35.63864 | -102.36023 | 11987 ft | 206 kts | 284° |
| 2026-05-03 23:54 | 35.64303 | -102.37698 | 11981 ft | 206 kts | 284° |
| 2026-05-03 23:54 | 35.64742 | -102.39372 | 11979 ft | 206 kts | 284° |
| 2026-05-03 23:55 | 35.65181 | -102.41045 | 11981 ft | 206 kts | 284° |
| 2026-05-03 23:55 | 35.65613 | -102.42696 | 11982 ft | 206 kts | 284° |
| 2026-05-03 23:55 | 35.66052 | -102.44372 | 11982 ft | 205 kts | 284° |
| 2026-05-03 23:55 | 35.66489 | -102.46040 | 11980 ft | 205 kts | 284° |
| 2026-05-03 23:56 | 35.66926 | -102.47715 | 11977 ft | 205 kts | 284° |
| 2026-05-03 23:56 | 35.67362 | -102.49382 | 11979 ft | 205 kts | 284° |
| 2026-05-03 23:56 | 35.67798 | -102.51058 | 11979 ft | 206 kts | 284° |
| 2026-05-03 23:56 | 35.68234 | -102.52733 | 11982 ft | 206 kts | 284° |
| 2026-05-03 23:57 | 35.68670 | -102.54407 | 11984 ft | 206 kts | 284° |
| 2026-05-03 23:57 | 35.69106 | -102.56080 | 11984 ft | 205 kts | 284° |
| 2026-05-03 23:57 | 35.69542 | -102.57752 | 11986 ft | 205 kts | 284° |
| 2026-05-03 23:57 | 35.69978 | -102.59422 | 11986 ft | 205 kts | 284° |
| 2026-05-03 23:58 | 35.70414 | -102.61095 | 11990 ft | 205 kts | 284° |
| 2026-05-03 23:58 | 35.70849 | -102.62768 | 11989 ft | 205 kts | 284° |
| 2026-05-03 23:58 | 35.71285 | -102.64443 | 11994 ft | 206 kts | 284° |
| 2026-05-03 23:58 | 35.71720 | -102.66119 | 11992 ft | 206 kts | 284° |
| 2026-05-03 23:59 | 35.72155 | -102.67795 | 11988 ft | 205 kts | 284° |
| 2026-05-03 23:59 | 35.72589 | -102.69474 | 11991 ft | 205 kts | 284° |
| 2026-05-03 23:59 | 35.73023 | -102.71147 | 11992 ft | 205 kts | 284° |
| 2026-05-03 23:59 | 35.73456 | -102.72822 | 11991 ft | 205 kts | 284° |
| 2026-05-04 00:00 | 35.73890 | -102.74497 | 11991 ft | 206 kts | 284° |
| 2026-05-04 00:00 | 35.74323 | -102.76170 | 11992 ft | 206 kts | 284° |
| 2026-05-04 00:00 | 35.74751 | -102.77828 | 11991 ft | 206 kts | 284° |
| 2026-05-04 00:00 | 35.75189 | -102.79523 | 11991 ft | 205 kts | 284° |
| 2026-05-04 00:01 | 35.75615 | -102.81183 | 11991 ft | 206 kts | 284° |
| 2026-05-04 00:01 | 35.76046 | -102.82862 | 11992 ft | 206 kts | 284° |
| 2026-05-04 00:01 | 35.76480 | -102.84541 | 11992 ft | 206 kts | 284° |
| 2026-05-04 00:01 | 35.76914 | -102.86226 | 11991 ft | 206 kts | 284° |
| 2026-05-04 00:02 | 35.77349 | -102.87907 | 11991 ft | 206 kts | 284° |
| 2026-05-04 00:02 | 35.77782 | -102.89586 | 11992 ft | 206 kts | 284° |
| 2026-05-04 00:02 | 35.78215 | -102.91269 | 11982 ft | 206 kts | 284° |
| 2026-05-04 00:02 | 35.78646 | -102.92950 | 11991 ft | 206 kts | 284° |
| 2026-05-04 00:03 | 35.79078 | -102.94630 | 11984 ft | 206 kts | 284° |
| 2026-05-04 00:03 | 35.79509 | -102.96308 | 11981 ft | 205 kts | 284° |
| 2026-05-04 00:03 | 35.79940 | -102.97986 | 11985 ft | 206 kts | 284° |
| 2026-05-04 00:03 | 35.80371 | -102.99667 | 11990 ft | 206 kts | 284° |
| 2026-05-04 00:04 | 35.80801 | -103.01350 | 11990 ft | 205 kts | 284° |
| 2026-05-04 00:04 | 35.81225 | -103.03005 | 11985 ft | 205 kts | 284° |
| 2026-05-04 00:04 | 35.81654 | -103.04683 | 11993 ft | 205 kts | 284° |
| 2026-05-04 00:04 | 35.82083 | -103.06361 | 11991 ft | 205 kts | 284° |
| 2026-05-04 00:05 | 35.82523 | -103.08058 | 12001 ft | 205 kts | 284° |
| 2026-05-04 00:05 | 35.82952 | -103.09710 | 12000 ft | 206 kts | 284° |
| 2026-05-04 00:05 | 35.83388 | -103.11392 | 11998 ft | 206 kts | 284° |
| 2026-05-04 00:05 | 35.83821 | -103.13075 | 11998 ft | 206 kts | 284° |
| 2026-05-04 00:06 | 35.84251 | -103.14758 | 11999 ft | 206 kts | 284° |
| 2026-05-04 00:06 | 35.84681 | -103.16441 | 11999 ft | 206 kts | 284° |
| 2026-05-04 00:06 | 35.85110 | -103.18127 | 12007 ft | 205 kts | 284° |
| 2026-05-04 00:06 | 35.85537 | -103.19804 | 12009 ft | 206 kts | 284° |
| 2026-05-04 00:07 | 35.85965 | -103.21486 | 12006 ft | 206 kts | 284° |
| 2026-05-04 00:07 | 35.86393 | -103.23172 | 11997 ft | 206 kts | 284° |
| 2026-05-04 00:07 | 35.86822 | -103.24860 | 11997 ft | 206 kts | 284° |
| 2026-05-04 00:07 | 35.87249 | -103.26545 | 11998 ft | 205 kts | 284° |
| 2026-05-04 00:08 | 35.87672 | -103.28211 | 11987 ft | 203 kts | 284° |
| 2026-05-04 00:08 | 35.88092 | -103.29869 | 11983 ft | 202 kts | 284° |
| 2026-05-04 00:08 | 35.88510 | -103.31525 | 11993 ft | 202 kts | 284° |
| 2026-05-04 00:08 | 35.88928 | -103.33180 | 11988 ft | 202 kts | 284° |
| 2026-05-04 00:09 | 35.89345 | -103.34836 | 11987 ft | 202 kts | 284° |
| 2026-05-04 00:09 | 35.89763 | -103.36494 | 11992 ft | 202 kts | 284° |
| 2026-05-04 00:09 | 35.90182 | -103.38151 | 11987 ft | 202 kts | 284° |
| 2026-05-04 00:09 | 35.90602 | -103.39812 | 11993 ft | 202 kts | 284° |
| 2026-05-04 00:10 | 35.91020 | -103.41470 | 11988 ft | 203 kts | 284° |
| 2026-05-04 00:10 | 35.91438 | -103.43129 | 11988 ft | 202 kts | 284° |
| 2026-05-04 00:10 | 35.91857 | -103.44787 | 11988 ft | 202 kts | 284° |
| 2026-05-04 00:10 | 35.92275 | -103.46443 | 11991 ft | 202 kts | 284° |
| 2026-05-04 00:11 | 35.92691 | -103.48099 | 11994 ft | 202 kts | 284° |
| 2026-05-04 00:11 | 35.93107 | -103.49756 | 11988 ft | 202 kts | 284° |
| 2026-05-04 00:11 | 35.93453 | -103.51432 | 11997 ft | 202 kts | 274° |
| 2026-05-04 00:11 | 35.93343 | -103.53138 | 11990 ft | 200 kts | 254° |
| 2026-05-04 00:12 | 35.92996 | -103.54807 | 11960 ft | 201 kts | 257° |
| 2026-05-04 00:12 | 35.92730 | -103.56495 | 11967 ft | 200 kts | 259° |
| 2026-05-04 00:12 | 35.92491 | -103.58157 | 11975 ft | 199 kts | 259° |
| 2026-05-04 00:12 | 35.92244 | -103.59837 | 11974 ft | 199 kts | 259° |
| 2026-05-04 00:13 | 35.91988 | -103.61512 | 11970 ft | 198 kts | 258° |
| 2026-05-04 00:13 | 35.91725 | -103.63183 | 11974 ft | 198 kts | 258° |
| 2026-05-04 00:13 | 35.91456 | -103.64852 | 11969 ft | 198 kts | 258° |
| 2026-05-04 00:13 | 35.91184 | -103.66518 | 11976 ft | 198 kts | 258° |
| 2026-05-04 00:14 | 35.90911 | -103.68184 | 11977 ft | 198 kts | 258° |
| 2026-05-04 00:14 | 35.90635 | -103.69849 | 11978 ft | 198 kts | 258° |
| 2026-05-04 00:14 | 35.90359 | -103.71514 | 11988 ft | 198 kts | 258° |
| 2026-05-04 00:14 | 35.90081 | -103.73177 | 11983 ft | 198 kts | 257° |
| 2026-05-04 00:15 | 35.89802 | -103.74848 | 11978 ft | 198 kts | 257° |
| 2026-05-04 00:15 | 35.89524 | -103.76515 | 11984 ft | 198 kts | 257° |
| 2026-05-04 00:15 | 35.89245 | -103.78181 | 11984 ft | 198 kts | 257° |
| 2026-05-04 00:15 | 35.88967 | -103.79846 | 11981 ft | 198 kts | 257° |
| 2026-05-04 00:16 | 35.88688 | -103.81517 | 11983 ft | 198 kts | 257° |
| 2026-05-04 00:16 | 35.88407 | -103.83186 | 11984 ft | 199 kts | 257° |
| 2026-05-04 00:16 | 35.88127 | -103.84857 | 11985 ft | 199 kts | 257° |
| 2026-05-04 00:16 | 35.87847 | -103.86531 | 11984 ft | 199 kts | 257° |
| 2026-05-04 00:17 | 35.87567 | -103.88196 | 11979 ft | 198 kts | 257° |
| 2026-05-04 00:17 | 35.87289 | -103.89851 | 11986 ft | 197 kts | 258° |
| 2026-05-04 00:17 | 35.87013 | -103.91502 | 11985 ft | 196 kts | 257° |
| 2026-05-04 00:17 | 35.86737 | -103.93149 | 11987 ft | 196 kts | 257° |
| 2026-05-04 00:18 | 35.86460 | -103.94796 | 11983 ft | 196 kts | 257° |
| 2026-05-04 00:18 | 35.86186 | -103.96421 | 11982 ft | 196 kts | 257° |
| 2026-05-04 00:18 | 35.85910 | -103.98069 | 11983 ft | 196 kts | 257° |
| 2026-05-04 00:18 | 35.85632 | -103.99716 | 11984 ft | 196 kts | 257° |
| 2026-05-04 00:19 | 35.85353 | -104.01362 | 11976 ft | 196 kts | 257° |
| 2026-05-04 00:19 | 35.85074 | -104.03007 | 11983 ft | 196 kts | 257° |
| 2026-05-04 00:19 | 35.84795 | -104.04652 | 11984 ft | 196 kts | 257° |
| 2026-05-04 00:19 | 35.84516 | -104.06302 | 11981 ft | 196 kts | 257° |
| 2026-05-04 00:20 | 35.84238 | -104.07950 | 11984 ft | 196 kts | 257° |
| 2026-05-04 00:20 | 35.83958 | -104.09597 | 11984 ft | 197 kts | 257° |
| 2026-05-04 00:20 | 35.83675 | -104.11246 | 11995 ft | 197 kts | 257° |
| 2026-05-04 00:20 | 35.83393 | -104.12893 | 12005 ft | 197 kts | 257° |
| 2026-05-04 00:21 | 35.83206 | -104.13990 | 12004 ft | 197 kts | 257° |
| 2026-05-04 00:21 | 35.82925 | -104.15641 | 12007 ft | 197 kts | 257° |
| 2026-05-04 00:21 | 35.82642 | -104.17292 | 12013 ft | 197 kts | 257° |
| 2026-05-04 00:21 | 35.82358 | -104.18944 | 12011 ft | 197 kts | 257° |
| 2026-05-04 00:22 | 35.82078 | -104.20596 | 12013 ft | 197 kts | 257° |
| 2026-05-04 00:22 | 35.81796 | -104.22250 | 12006 ft | 197 kts | 257° |
| 2026-05-04 00:22 | 35.81513 | -104.23903 | 12009 ft | 197 kts | 257° |
| 2026-05-04 00:22 | 35.81231 | -104.25555 | 12012 ft | 197 kts | 257° |
| 2026-05-04 00:23 | 35.80949 | -104.27208 | 12007 ft | 197 kts | 258° |
| 2026-05-04 00:23 | 35.80665 | -104.28860 | 12010 ft | 197 kts | 257° |
| 2026-05-04 00:23 | 35.80385 | -104.30504 | 12012 ft | 196 kts | 257° |
| 2026-05-04 00:23 | 35.80099 | -104.32150 | 12026 ft | 197 kts | 257° |
| 2026-05-04 00:24 | 35.79812 | -104.33804 | 12017 ft | 197 kts | 257° |
| 2026-05-04 00:24 | 35.79534 | -104.35432 | 12020 ft | 197 kts | 258° |
| 2026-05-04 00:24 | 35.79251 | -104.37083 | 12018 ft | 199 kts | 258° |
| 2026-05-04 00:24 | 35.78965 | -104.38743 | 12023 ft | 198 kts | 257° |
| 2026-05-04 00:25 | 35.78679 | -104.40396 | 12025 ft | 197 kts | 258° |
| 2026-05-04 00:25 | 35.78393 | -104.42049 | 12023 ft | 197 kts | 258° |
| 2026-05-04 00:25 | 35.78105 | -104.43704 | 12034 ft | 198 kts | 258° |
| 2026-05-04 00:25 | 35.77816 | -104.45368 | 12048 ft | 199 kts | 258° |
| 2026-05-04 00:26 | 35.77531 | -104.47009 | 12198 ft | 193 kts | 258° |
| 2026-05-04 00:26 | 35.77255 | -104.48598 | 12360 ft | 187 kts | 258° |
| 2026-05-04 00:26 | 35.76984 | -104.50148 | 12519 ft | 184 kts | 258° |
| 2026-05-04 00:26 | 35.76755 | -104.51684 | 12666 ft | 181 kts | 268° |
| 2026-05-04 00:27 | 35.77063 | -104.53160 | 12807 ft | 181 kts | 300° |
| 2026-05-04 00:27 | 35.78004 | -104.54190 | 12908 ft | 187 kts | 330° |
| 2026-05-04 00:27 | 35.79251 | -104.54698 | 13066 ft | 190 kts | 340° |
| 2026-05-04 00:27 | 35.80538 | -104.55106 | 13044 ft | 200 kts | 341° |
| 2026-05-04 00:28 | 35.81914 | -104.55511 | 13010 ft | 206 kts | 342° |
| 2026-05-04 00:28 | 35.83331 | -104.55910 | 12998 ft | 210 kts | 342° |
| 2026-05-04 00:28 | 35.84762 | -104.56305 | 13004 ft | 212 kts | 343° |
| 2026-05-04 00:28 | 35.86200 | -104.56702 | 13019 ft | 212 kts | 342° |
| 2026-05-04 00:29 | 35.87649 | -104.57111 | 13020 ft | 214 kts | 342° |
| 2026-05-04 00:29 | 35.89102 | -104.57524 | 13018 ft | 215 kts | 342° |
| 2026-05-04 00:29 | 35.90557 | -104.57941 | 13017 ft | 215 kts | 342° |
| 2026-05-04 00:29 | 35.92019 | -104.58365 | 13013 ft | 215 kts | 342° |
| 2026-05-04 00:30 | 35.93477 | -104.58789 | 13021 ft | 215 kts | 342° |
| 2026-05-04 00:30 | 35.94935 | -104.59212 | 13027 ft | 215 kts | 342° |
| 2026-05-04 00:30 | 35.96393 | -104.59639 | 13028 ft | 215 kts | 342° |
| 2026-05-04 00:30 | 35.97850 | -104.60068 | 13026 ft | 215 kts | 342° |
| 2026-05-04 00:31 | 35.99311 | -104.60497 | 13025 ft | 216 kts | 342° |
| 2026-05-04 00:31 | 36.00775 | -104.60924 | 13025 ft | 216 kts | 342° |
| 2026-05-04 00:31 | 36.02243 | -104.61354 | 13017 ft | 217 kts | 342° |
| 2026-05-04 00:31 | 36.03716 | -104.61783 | 13026 ft | 217 kts | 342° |
| 2026-05-04 00:32 | 36.05187 | -104.62212 | 13026 ft | 217 kts | 342° |
| 2026-05-04 00:32 | 36.06642 | -104.62634 | 13024 ft | 217 kts | 342° |
| 2026-05-04 00:32 | 36.08111 | -104.63067 | 13025 ft | 217 kts | 342° |
| 2026-05-04 00:32 | 36.09583 | -104.63500 | 13026 ft | 217 kts | 342° |
| 2026-05-04 00:33 | 36.11052 | -104.63931 | 13025 ft | 217 kts | 342° |
| 2026-05-04 00:33 | 36.13993 | -104.64793 | 13023 ft | 217 kts | 342° |
| 2026-05-04 00:33 | 36.15462 | -104.65223 | 13022 ft | 217 kts | 342° |
| 2026-05-04 00:34 | 36.16931 | -104.65653 | 13023 ft | 217 kts | 342° |
| 2026-05-04 00:34 | 36.18400 | -104.66083 | 13025 ft | 217 kts | 342° |
| 2026-05-04 00:34 | 36.19868 | -104.66514 | 13017 ft | 217 kts | 342° |
| 2026-05-04 00:34 | 36.21336 | -104.66946 | 13023 ft | 217 kts | 342° |
| 2026-05-04 00:35 | 36.22807 | -104.67379 | 13026 ft | 217 kts | 342° |
| 2026-05-04 00:35 | 36.24271 | -104.67810 | 13025 ft | 217 kts | 342° |
| 2026-05-04 00:35 | 36.25738 | -104.68242 | 13025 ft | 217 kts | 342° |
| 2026-05-04 00:35 | 36.27206 | -104.68678 | 13025 ft | 217 kts | 342° |
| 2026-05-04 00:36 | 36.28651 | -104.69111 | 13026 ft | 216 kts | 342° |
| 2026-05-04 00:36 | 36.30116 | -104.69550 | 13026 ft | 216 kts | 342° |
| 2026-05-04 00:36 | 36.31580 | -104.69986 | 13025 ft | 216 kts | 342° |
| 2026-05-04 00:36 | 36.33042 | -104.70421 | 13022 ft | 216 kts | 342° |
| 2026-05-04 00:37 | 36.34505 | -104.70855 | 13024 ft | 216 kts | 342° |
| 2026-05-04 00:37 | 36.35970 | -104.71290 | 13027 ft | 216 kts | 342° |
| 2026-05-04 00:37 | 36.37433 | -104.71722 | 13019 ft | 216 kts | 342° |
| 2026-05-04 00:37 | 36.38895 | -104.72152 | 13014 ft | 216 kts | 342° |
| 2026-05-04 00:38 | 36.40357 | -104.72583 | 13015 ft | 216 kts | 342° |
| 2026-05-04 00:38 | 36.41817 | -104.73017 | 13016 ft | 216 kts | 342° |
| 2026-05-04 00:38 | 36.43278 | -104.73449 | 13016 ft | 216 kts | 342° |
| 2026-05-04 00:38 | 36.44737 | -104.73882 | 13016 ft | 216 kts | 342° |
| 2026-05-04 00:39 | 36.46196 | -104.74313 | 13015 ft | 216 kts | 342° |
| 2026-05-04 00:39 | 36.47655 | -104.74744 | 13016 ft | 215 kts | 342° |
| 2026-05-04 00:39 | 36.49114 | -104.75177 | 13015 ft | 216 kts | 342° |
| 2026-05-04 00:39 | 36.50572 | -104.75609 | 13015 ft | 215 kts | 342° |
| 2026-05-04 00:40 | 36.52013 | -104.76037 | 13015 ft | 215 kts | 342° |
| 2026-05-04 00:40 | 36.53487 | -104.76477 | 13006 ft | 215 kts | 343° |
| 2026-05-04 00:40 | 36.54948 | -104.76910 | 13005 ft | 215 kts | 343° |
| 2026-05-04 00:40 | 36.56386 | -104.77337 | 13006 ft | 215 kts | 343° |
| 2026-05-04 00:41 | 36.57843 | -104.77769 | 13006 ft | 215 kts | 343° |
| 2026-05-04 00:41 | 36.59300 | -104.78202 | 13004 ft | 215 kts | 343° |
| 2026-05-04 00:41 | 36.60754 | -104.78632 | 12995 ft | 215 kts | 343° |
| 2026-05-04 00:41 | 36.62211 | -104.79065 | 12998 ft | 215 kts | 343° |
| 2026-05-04 00:42 | 36.63668 | -104.79498 | 12997 ft | 215 kts | 343° |
| 2026-05-04 00:42 | 36.65126 | -104.79926 | 12993 ft | 215 kts | 342° |
| 2026-05-04 00:42 | 36.66582 | -104.80365 | 12997 ft | 215 kts | 342° |
| 2026-05-04 00:42 | 36.68031 | -104.80801 | 12995 ft | 215 kts | 343° |
| 2026-05-04 00:43 | 36.69444 | -104.81362 | 12999 ft | 212 kts | 330° |
| 2026-05-04 00:43 | 36.70625 | -104.82405 | 12989 ft | 206 kts | 312° |
| 2026-05-04 00:43 | 36.71462 | -104.83818 | 12990 ft | 201 kts | 295° |
| 2026-05-04 00:43 | 36.71892 | -104.85452 | 12994 ft | 197 kts | 278° |
| 2026-05-04 00:44 | 36.72104 | -104.87128 | 13012 ft | 194 kts | 279° |
| 2026-05-04 00:44 | 36.72336 | -104.88785 | 13003 ft | 194 kts | 279° |
| 2026-05-04 00:44 | 36.72566 | -104.90436 | 13008 ft | 193 kts | 279° |
| 2026-05-04 00:44 | 36.72786 | -104.92080 | 13015 ft | 192 kts | 279° |
| 2026-05-04 00:45 | 36.73005 | -104.93720 | 13025 ft | 192 kts | 279° |
| 2026-05-04 00:45 | 36.73222 | -104.95355 | 13027 ft | 191 kts | 278° |
| 2026-05-04 00:45 | 36.73434 | -104.96990 | 13026 ft | 191 kts | 278° |
| 2026-05-04 00:45 | 36.73645 | -104.98626 | 13031 ft | 192 kts | 278° |
| 2026-05-04 00:46 | 36.73859 | -105.00267 | 13031 ft | 192 kts | 279° |
| 2026-05-04 00:46 | 36.74072 | -105.01908 | 13035 ft | 192 kts | 279° |
| 2026-05-04 00:46 | 36.74285 | -105.03549 | 13040 ft | 192 kts | 279° |
| 2026-05-04 00:46 | 36.74498 | -105.05189 | 13037 ft | 191 kts | 279° |
| 2026-05-04 00:47 | 36.74707 | -105.06806 | 13046 ft | 192 kts | 279° |
| 2026-05-04 00:47 | 36.74923 | -105.08461 | 12972 ft | 195 kts | 279° |
| 2026-05-04 00:47 | 36.75099 | -105.10154 | 12884 ft | 199 kts | 272° |
| 2026-05-04 00:47 | 36.74934 | -105.11867 | 12791 ft | 201 kts | 254° |
| 2026-05-04 00:48 | 36.74565 | -105.13561 | 12663 ft | 205 kts | 259° |
| 2026-05-04 00:48 | 36.74280 | -105.15280 | 12670 ft | 200 kts | 259° |
| 2026-05-04 00:48 | 36.74004 | -105.16969 | 12681 ft | 198 kts | 259° |
| 2026-05-04 00:48 | 36.73722 | -105.18632 | 12697 ft | 195 kts | 259° |
| 2026-05-04 00:49 | 36.73432 | -105.20268 | 12749 ft | 193 kts | 258° |
| 2026-05-04 00:49 | 36.73137 | -105.21900 | 12751 ft | 191 kts | 258° |
| 2026-05-04 00:49 | 36.72844 | -105.23495 | 12745 ft | 184 kts | 258° |
| 2026-05-04 00:49 | 36.72568 | -105.25007 | 12729 ft | 174 kts | 258° |
| 2026-05-04 00:50 | 36.72302 | -105.26443 | 12726 ft | 166 kts | 258° |
| 2026-05-04 00:50 | 36.71950 | -105.27773 | 12712 ft | 159 kts | 245° |
| 2026-05-04 00:50 | 36.71313 | -105.28858 | 12665 ft | 158 kts | 227° |
| 2026-05-04 00:50 | 36.70414 | -105.29642 | 12579 ft | 160 kts | 210° |
| 2026-05-04 00:51 | 36.69343 | -105.30023 | 12482 ft | 162 kts | 190° |
| 2026-05-04 00:51 | 36.68221 | -105.29893 | 12376 ft | 164 kts | 167° |
| 2026-05-04 00:51 | 36.67120 | -105.29525 | 12324 ft | 163 kts | 172° |
| 2026-05-04 00:51 | 36.66021 | -105.29239 | 12307 ft | 158 kts | 173° |
| 2026-05-04 00:52 | 36.64966 | -105.28966 | 12322 ft | 152 kts | 173° |
| 2026-05-04 00:52 | 36.63947 | -105.28690 | 12327 ft | 149 kts | 172° |
| 2026-05-04 00:52 | 36.62948 | -105.28409 | 12266 ft | 147 kts | 172° |
| 2026-05-04 00:52 | 36.61919 | -105.28118 | 12039 ft | 151 kts | 172° |
| 2026-05-04 00:53 | 36.60956 | -105.27841 | 11794 ft | 133 kts | 173° |
| 2026-05-04 00:53 | 36.60003 | -105.27638 | 11619 ft | 142 kts | 182° |
| 2026-05-04 00:53 | 36.59040 | -105.27667 | 11587 ft | 135 kts | 189° |
| 2026-05-04 00:53 | 36.58131 | -105.27740 | 11624 ft | 126 kts | 190° |
| 2026-05-04 00:54 | 36.57214 | -105.27823 | 11704 ft | 136 kts | 189° |
| 2026-05-04 00:54 | 36.56238 | -105.27911 | 11714 ft | 146 kts | 189° |
| 2026-05-04 00:54 | 36.55180 | -105.27998 | 11681 ft | 158 kts | 188° |
| 2026-05-04 00:54 | 36.54051 | -105.28087 | 11656 ft | 166 kts | 188° |
| 2026-05-04 00:55 | 36.52998 | -105.28163 | 11616 ft | 136 kts | 189° |
| 2026-05-04 00:55 | 36.52112 | -105.28232 | 11324 ft | 125 kts | 190° |
| 2026-05-04 00:55 | 36.51245 | -105.28313 | 10872 ft | 128 kts | 190° |
| 2026-05-04 00:55 | 36.50385 | -105.28385 | 10477 ft | 125 kts | 189° |
| 2026-05-04 00:56 | 36.49562 | -105.28447 | 10030 ft | 112 kts | 189° |
| 2026-05-04 00:56 | 36.48800 | -105.28505 | 9561 ft | 107 kts | 189° |
| 2026-05-04 00:56 | 36.48064 | -105.28561 | 9407 ft | 102 kts | 188° |
| 2026-05-04 00:56 | 36.47389 | -105.28606 | 9440 ft | 95 kts | 188° |
| 2026-05-04 00:57 | 36.46657 | -105.28662 | 9166 ft | 114 kts | 188° |
| 2026-05-04 00:57 | 36.45867 | -105.28763 | 8985 ft | 117 kts | 191° |
| 2026-05-04 00:57 | 36.45087 | -105.28851 | 8726 ft | 108 kts | 187° |
| 2026-05-04 00:57 | 36.44334 | -105.28880 | 8540 ft | 107 kts | 189° |
| 2026-05-04 00:58 | 36.43611 | -105.28917 | 8344 ft | 103 kts | 186° |
| 2026-05-04 00:58 | 36.43042 | -105.28959 | 8338 ft | 63 kts | 182° |
| 2026-05-04 00:58 | 36.42830 | -105.29010 | 8345 ft | 7 kts | 268° |
| 2026-05-04 00:58 | 36.42789 | -105.29038 | 8346 ft | 8 kts | 182° |
| 2026-05-04 00:59 | 36.42621 | -105.29047 | 8345 ft | 28 kts | 183° |
| 2026-05-04 00:59 | 36.42457 | -105.29058 | 8349 ft | 19 kts | 181° |
| 2026-05-04 00:59 | 36.42300 | -105.29064 | 8350 ft | 35 kts | 187° |
| 2026-05-04 00:59 | 36.42040 | -105.29088 | 8359 ft | 27 kts | 229° |
| 2026-05-04 01:00 | 36.41993 | -105.29146 | 8360 ft | 0 kts | 276° |